Barkersville, South Carolina
Current Conditions -  °F | °C
As of 5:56 PM on Tuesday 27 Jan 2015 (Local Time) from KNBC Reporting Station
Few Clouds Few Clouds  
Wind Chill:   Ceiling: Unl
Heat Index:   Visibility: 10mi
Dew Point: -1°   Wind: 8mph
Humidity: 54%   Direction: 310°NW
Pressure: 29.93"   Gusts: NA
Location:  32.6221°N, 81.0484°W
Report Text: KNBC 272256Z 31007KT 10SM FEW040 08/M01 A2993 RMK AO2 SLP137 T00831006 $
Loading
Personal Weather Stations






























Interactive Weather Map New forecast layout! Learn more

10-Day Weather Forecast

Advertisements
Track Severe Weather on mobile